createdAt,value
2023-05-21T00:00:58.342Z,66.39
2023-05-21T00:03:50.766Z,66.41
2023-05-21T00:06:33.258Z,66.47
2023-05-21T00:09:25.547Z,66.42
2023-05-21T00:12:17.583Z,66.39
2023-05-21T00:15:11.261Z,66.40
2023-05-21T00:18:03.607Z,66.37
2023-05-21T00:20:38.691Z,66.39
2023-05-21T00:23:32.670Z,66.37
2023-05-21T00:26:25.119Z,66.45
2023-05-21T00:29:08.163Z,66.50
2023-05-21T00:32:00.818Z,66.46
2023-05-21T00:34:53.571Z,66.54
2023-05-21T00:37:34.427Z,66.57
2023-05-21T00:40:11.796Z,66.55
2023-05-21T00:43:03.933Z,66.52
2023-05-21T00:45:59.171Z,66.57
2023-05-21T00:48:52.285Z,66.59
2023-05-21T00:51:30.438Z,66.58
2023-05-21T00:54:22.840Z,66.77
2023-05-21T00:56:58.021Z,66.86
2023-05-21T00:59:52.130Z,66.93
2023-05-21T01:02:44.968Z,67.04
2023-05-21T01:05:17.201Z,67.19
2023-05-21T01:08:10.267Z,67.23
2023-05-21T01:11:02.603Z,67.25
2023-05-21T01:13:55.139Z,67.26
2023-05-21T01:16:50.085Z,67.24
2023-05-21T01:19:44.438Z,67.24
2023-05-21T01:22:29.572Z,67.22
2023-05-21T01:25:21.739Z,67.13
2023-05-21T01:28:09.990Z,67.20
2023-05-21T01:31:06.239Z,67.15
2023-05-21T01:34:02.363Z,67.12
2023-05-21T01:37:02.114Z,67.04
2023-05-21T01:39:57.542Z,67.13
2023-05-21T01:42:50.067Z,67.06
2023-05-21T01:45:34.707Z,67.02
2023-05-21T01:48:29.101Z,67.02
2023-05-21T01:51:21.895Z,67.03
2023-05-21T01:54:14.246Z,66.96
2023-05-21T01:57:06.749Z,66.95
2023-05-21T02:00:00.156Z,66.88
2023-05-21T02:02:52.792Z,66.88
2023-05-21T02:05:44.870Z,66.84
2023-05-21T02:08:38.546Z,66.75
2023-05-21T02:11:30.850Z,66.70
2023-05-21T02:14:25.219Z,66.55
2023-05-21T02:17:17.398Z,66.57
2023-05-21T02:19:54.421Z,66.35
2023-05-21T02:22:48.495Z,66.35
2023-05-21T02:25:40.571Z,66.29
2023-05-21T02:28:33.210Z,66.24
2023-05-21T02:31:25.309Z,66.19
2023-05-21T02:34:02.236Z,66.17
2023-05-21T02:36:54.705Z,66.05
2023-05-21T02:39:27.258Z,65.92
2023-05-21T02:42:19.293Z,65.91
2023-05-21T02:45:13.442Z,65.73
2023-05-21T02:48:05.667Z,65.69
2023-05-21T02:50:57.793Z,65.55
2023-05-21T02:53:49.924Z,65.44
2023-05-21T02:56:42.050Z,65.42
2023-05-21T02:59:34.059Z,65.43
2023-05-21T03:02:26.149Z,65.25
2023-05-21T03:04:58.955Z,65.25
2023-05-21T03:07:48.289Z,65.20
2023-05-21T03:10:40.319Z,65.15
2023-05-21T03:13:32.324Z,65.15
2023-05-21T03:16:24.443Z,64.99
2023-05-21T03:19:16.544Z,64.96
2023-05-21T03:22:08.994Z,64.92
2023-05-21T03:25:01.870Z,64.95
2023-05-21T03:27:54.280Z,64.93
2023-05-21T03:30:29.275Z,64.87
2023-05-21T03:33:21.286Z,64.92
2023-05-21T03:36:13.237Z,64.92
2023-05-21T03:39:05.302Z,64.81
2023-05-21T03:41:57.348Z,64.68
2023-05-21T03:44:49.548Z,64.80
2023-05-21T03:47:41.955Z,64.86
2023-05-21T03:50:34.167Z,64.89
2023-05-21T03:53:26.199Z,64.91
2023-05-21T03:56:18.166Z,64.82
2023-05-21T03:59:10.265Z,64.86
2023-05-21T04:02:02.422Z,64.94
2023-05-21T04:04:55.948Z,64.98
2023-05-21T04:07:48.543Z,65.10
2023-05-21T04:10:35.662Z,64.98
2023-05-21T04:13:18.120Z,64.94
2023-05-21T04:16:10.863Z,65.10
2023-05-21T04:19:02.988Z,65.07
2023-05-21T04:21:44.985Z,65.03
2023-05-21T04:24:38.097Z,64.80
2023-05-21T04:27:30.236Z,64.69
2023-05-21T04:30:12.078Z,64.78
2023-05-21T04:33:04.200Z,64.84
2023-05-21T04:35:56.470Z,64.79
2023-05-21T04:38:39.800Z,64.56
2023-05-21T04:41:31.856Z,64.34
2023-05-21T04:44:24.810Z,64.34
2023-05-21T04:47:18.356Z,64.44
2023-05-21T04:50:12.013Z,64.22
2023-05-21T04:53:04.990Z,63.91
2023-05-21T04:55:59.381Z,63.72
2023-05-21T04:58:51.503Z,63.50
2023-05-21T05:01:43.982Z,62.83
2023-05-21T05:04:36.106Z,62.62
2023-05-21T05:07:28.125Z,62.65
2023-05-21T05:10:11.442Z,62.81
2023-05-21T05:13:03.601Z,62.47
2023-05-21T05:15:48.731Z,62.01
2023-05-21T05:18:41.827Z,62.14
2023-05-21T05:21:34.640Z,61.40
2023-05-21T05:24:26.650Z,61.23
2023-05-21T05:27:18.952Z,61.19
2023-05-21T05:30:12.791Z,61.15
2023-05-21T05:33:04.873Z,60.91
2023-05-21T05:35:48.238Z,60.50
2023-05-21T05:38:40.286Z,60.58
2023-05-21T05:41:32.558Z,60.27
2023-05-21T05:44:24.550Z,59.71
2023-05-21T05:47:16.877Z,59.77
2023-05-21T05:50:10.025Z,57.98
2023-05-21T05:53:02.084Z,57.08
2023-05-21T05:55:54.331Z,54.55
2023-05-21T05:58:46.376Z,53.42
2023-05-21T06:01:38.399Z,52.63
2023-05-21T06:04:30.579Z,50.93
2023-05-21T06:07:22.557Z,49.80
2023-05-21T06:10:14.697Z,48.83
2023-05-21T06:13:06.749Z,47.16
2023-05-21T06:15:39.361Z,46.78
2023-05-21T06:18:31.519Z,44.23
2023-05-21T06:21:23.618Z,44.13
2023-05-21T06:24:15.936Z,43.12
2023-05-21T06:27:08.543Z,41.90
2023-05-21T06:30:00.568Z,40.27
2023-05-21T06:32:52.762Z,39.86
2023-05-21T06:35:44.884Z,38.36
2023-05-21T06:38:37.104Z,38.16
2023-05-21T06:41:29.110Z,38.15
2023-05-21T06:44:21.285Z,37.99
2023-05-21T06:47:13.350Z,37.61
2023-05-21T06:50:06.019Z,36.83
2023-05-21T06:52:58.061Z,36.53
2023-05-21T06:55:53.618Z,36.17
2023-05-21T06:58:45.934Z,35.64
2023-05-21T07:01:34.538Z,35.96
2023-05-21T07:04:09.604Z,36.12
2023-05-21T07:07:01.641Z,34.86
2023-05-21T07:09:53.618Z,34.90
2023-05-21T07:12:45.623Z,34.15
2023-05-21T07:15:37.912Z,34.03
2023-05-21T07:18:30.234Z,34.21
2023-05-21T07:21:22.363Z,33.42
2023-05-21T07:24:14.373Z,34.08
2023-05-21T07:27:17.658Z,34.62
2023-05-21T07:30:16.776Z,34.67
2023-05-21T07:33:08.870Z,35.38
2023-05-21T07:36:00.934Z,35.75
2023-05-21T07:38:53.035Z,36.56
2023-05-21T07:41:45.622Z,37.13
2023-05-21T07:44:26.312Z,37.32
2023-05-21T07:47:18.386Z,37.12
2023-05-21T07:49:50.217Z,37.98
2023-05-21T07:52:42.332Z,38.71
2023-05-21T07:55:34.503Z,38.66
2023-05-21T07:58:26.993Z,38.97
2023-05-21T08:44:26.819Z,40.10
2023-05-21T08:47:11.365Z,40.81
2023-05-21T08:50:01.982Z,40.39
2023-05-21T08:52:55.275Z,40.05
2023-05-21T08:55:47.797Z,39.29
2023-05-21T08:58:32.129Z,39.50
2023-05-21T09:01:26.664Z,38.70
2023-05-21T09:04:19.023Z,38.97
2023-05-21T09:07:13.146Z,38.93
2023-05-21T09:10:09.918Z,38.61
2023-05-21T09:13:02.042Z,39.39
2023-05-21T09:15:37.435Z,39.23
2023-05-21T09:18:27.537Z,38.52
2023-05-21T09:21:26.242Z,38.68
2023-05-21T09:24:17.414Z,38.27
2023-05-21T09:26:52.674Z,38.21
2023-05-21T09:29:34.955Z,38.08
2023-05-21T09:32:27.273Z,37.62
2023-05-21T09:35:19.383Z,37.90
2023-05-21T09:38:13.106Z,37.68
2023-05-21T09:41:07.207Z,37.46
2023-05-21T09:44:03.113Z,38.00
2023-05-21T09:46:45.321Z,38.51
2023-05-21T09:49:39.672Z,38.04
2023-05-21T09:52:32.071Z,37.33
2023-05-21T09:55:26.515Z,37.52
2023-05-21T09:58:18.591Z,36.98
2023-05-21T10:01:13.186Z,36.54
2023-05-21T10:03:50.685Z,35.89
2023-05-21T10:06:45.326Z,36.20
2023-05-21T10:09:37.699Z,35.76
2023-05-21T10:12:31.823Z,36.14
2023-05-21T10:15:26.279Z,35.86
2023-05-21T10:18:21.430Z,36.07
2023-05-21T10:21:14.168Z,35.72
2023-05-21T10:24:07.981Z,34.31
2023-05-21T10:27:01.881Z,33.31
2023-05-21T10:29:42.345Z,34.15
2023-05-21T10:32:34.600Z,34.90
2023-05-21T10:35:28.193Z,34.55
2023-05-21T10:38:21.694Z,34.11
2023-05-21T10:41:16.545Z,34.82
2023-05-21T10:44:19.035Z,34.95
2023-05-21T10:47:52.153Z,34.66
2023-05-21T10:51:02.720Z,34.23
2023-05-21T10:54:34.147Z,34.44
2023-05-21T10:57:33.101Z,34.62
2023-05-21T11:00:27.947Z,33.45
2023-05-21T11:03:18.617Z,34.54
2023-05-21T11:06:11.593Z,34.35
2023-05-21T11:09:28.165Z,34.10
2023-05-21T11:12:12.893Z,33.77
2023-05-21T11:15:05.215Z,33.40
2023-05-21T11:17:59.361Z,33.38
2023-05-21T11:20:54.470Z,33.79
2023-05-21T11:23:54.544Z,33.79
2023-05-21T11:27:08.607Z,33.50
2023-05-21T11:29:49.240Z,33.62
2023-05-21T11:33:01.493Z,33.66
2023-05-21T11:36:01.353Z,33.10
2023-05-21T11:39:11.951Z,33.77
2023-05-21T11:42:04.923Z,33.85
2023-05-21T11:44:59.915Z,34.57
2023-05-21T11:47:34.724Z,34.41
2023-05-21T11:50:27.339Z,34.40
2023-05-21T11:53:19.448Z,34.94
2023-05-21T11:55:57.469Z,35.19
2023-05-21T11:58:49.971Z,35.58
2023-05-21T12:01:42.755Z,35.21
2023-05-21T12:04:36.435Z,35.15
2023-05-21T12:07:31.294Z,35.09
2023-05-21T12:10:26.869Z,35.35
2023-05-21T12:13:19.143Z,35.01
2023-05-21T12:16:11.799Z,35.23
2023-05-21T12:19:04.906Z,35.02
2023-05-21T12:21:57.347Z,34.45
2023-05-21T12:24:32.212Z,34.31
2023-05-21T12:27:24.850Z,34.34
2023-05-21T12:30:17.256Z,34.22
2023-05-21T12:32:52.147Z,34.44
2023-05-21T12:35:46.337Z,34.83
2023-05-21T12:38:39.610Z,34.86
2023-05-21T12:41:32.215Z,35.34
2023-05-21T12:44:24.235Z,34.52
2023-05-21T12:47:18.347Z,33.96
2023-05-21T12:50:13.916Z,34.26
2023-05-21T12:52:48.556Z,34.20
2023-05-21T12:55:41.143Z,34.45
2023-05-21T12:58:38.230Z,34.26
2023-05-21T13:01:30.268Z,34.56
2023-05-21T13:04:23.423Z,34.97
2023-05-21T13:07:16.079Z,34.56
2023-05-21T13:10:10.496Z,34.74
2023-05-21T13:12:45.211Z,34.68
2023-05-21T13:15:37.293Z,34.61
2023-05-21T13:18:29.296Z,34.13
2023-05-21T13:21:21.301Z,33.60
2023-05-21T13:24:13.370Z,33.25
2023-05-21T13:27:05.735Z,33.55
2023-05-21T13:29:57.997Z,34.31
2023-05-21T13:32:50.556Z,34.05
2023-05-21T13:35:42.809Z,34.27
2023-05-21T13:38:14.628Z,34.15
2023-05-21T13:41:06.643Z,34.33
2023-05-21T13:43:58.895Z,34.24
2023-05-21T13:46:51.144Z,34.60
2023-05-21T13:49:43.407Z,34.52
2023-05-21T13:52:35.485Z,34.68
2023-05-21T13:55:27.498Z,34.53
2023-05-21T13:58:08.276Z,35.03
2023-05-21T14:01:00.448Z,34.01
2023-05-21T14:03:32.364Z,34.24
2023-05-21T14:06:24.529Z,35.22
2023-05-21T14:09:16.657Z,35.58
2023-05-21T14:12:09.653Z,35.72
2023-05-21T14:15:01.783Z,35.96
2023-05-21T14:17:53.936Z,36.13
2023-05-21T14:20:25.896Z,35.81
2023-05-21T14:23:17.966Z,35.78
2023-05-21T14:26:10.040Z,36.10
2023-05-21T14:29:02.216Z,36.11
2023-05-21T14:31:54.294Z,35.61
2023-05-21T14:34:46.337Z,35.79
2023-05-21T14:37:38.335Z,36.35
2023-05-21T14:40:30.383Z,35.85
2023-05-21T14:43:22.480Z,36.06
2023-05-21T14:46:14.557Z,36.28
2023-05-21T14:49:06.606Z,36.10
2023-05-21T14:51:58.676Z,36.76
2023-05-21T14:54:50.679Z,36.69
2023-05-21T14:57:42.682Z,36.83
2023-05-21T15:00:35.361Z,37.14
2023-05-21T15:03:27.690Z,37.30
2023-05-21T15:06:20.556Z,37.07
2023-05-21T15:09:12.577Z,37.16
2023-05-21T15:12:04.710Z,37.26
2023-05-21T15:14:42.519Z,37.34
2023-05-21T15:17:35.251Z,37.56
2023-05-21T15:20:27.315Z,37.41
2023-05-21T15:23:19.588Z,37.38
2023-05-21T15:26:11.577Z,37.21
2023-05-21T15:29:03.959Z,37.64
2023-05-21T15:31:56.014Z,37.77
2023-05-21T15:34:48.618Z,37.49
2023-05-21T15:37:40.757Z,37.92
2023-05-21T15:40:33.300Z,38.18
2023-05-21T15:43:25.369Z,38.09
2023-05-21T15:46:17.487Z,38.43
2023-05-21T15:49:09.637Z,38.57
2023-05-21T15:52:02.989Z,38.57
2023-05-21T15:54:54.998Z,38.83
2023-05-21T15:57:37.512Z,39.13
2023-05-21T16:00:29.663Z,39.09
2023-05-21T16:03:21.839Z,39.14
2023-05-21T16:06:14.039Z,39.19
2023-05-21T16:09:06.454Z,39.46
2023-05-21T16:11:44.810Z,39.52
2023-05-21T16:14:36.859Z,39.24
2023-05-21T16:17:14.012Z,39.09
2023-05-21T16:20:07.323Z,39.44
2023-05-21T16:22:59.475Z,39.47
2023-05-21T16:25:51.550Z,39.70
2023-05-21T16:28:43.557Z,39.23
2023-05-21T16:31:35.857Z,39.47
2023-05-21T16:34:07.875Z,39.55
2023-05-21T16:36:59.869Z,39.69
2023-05-21T16:39:36.979Z,39.55
2023-05-21T16:42:20.631Z,39.64
2023-05-21T16:45:20.621Z,39.72
2023-05-21T16:48:13.223Z,39.56
2023-05-21T16:50:48.333Z,39.28
2023-05-21T16:53:40.579Z,39.58
2023-05-21T16:56:17.479Z,39.59
2023-05-21T16:59:09.501Z,39.86
2023-05-21T17:02:01.541Z,39.98
2023-05-21T17:04:54.091Z,40.06
2023-05-21T17:07:46.133Z,40.00
2023-05-21T17:10:38.202Z,40.10
2023-05-21T17:13:30.297Z,40.05
2023-05-21T17:16:22.950Z,39.89
2023-05-21T17:19:15.089Z,39.95
2023-05-21T17:22:07.354Z,40.13
2023-05-21T17:24:59.469Z,40.14
2023-05-21T17:27:52.704Z,40.19
2023-05-21T17:30:45.360Z,40.20
2023-05-21T17:33:29.319Z,40.34
2023-05-21T17:36:21.351Z,40.39
2023-05-21T17:39:13.406Z,40.51
2023-05-21T17:42:05.797Z,40.70
2023-05-21T17:44:41.212Z,40.75
2023-05-21T17:47:34.508Z,40.61
2023-05-21T17:50:27.079Z,40.85
2023-05-21T17:53:19.115Z,40.82
2023-05-21T17:55:53.779Z,40.81
2023-05-21T17:58:25.646Z,41.04
2023-05-21T18:01:17.726Z,40.98
2023-05-21T18:04:12.171Z,41.14
2023-05-21T18:07:03.222Z,41.13
2023-05-21T18:09:56.510Z,41.49
2023-05-21T18:12:37.339Z,41.61
2023-05-21T18:15:29.387Z,41.48
2023-05-21T18:18:21.767Z,41.84
2023-05-21T18:21:14.288Z,41.91
2023-05-21T18:24:07.894Z,42.20
2023-05-21T18:26:59.899Z,42.20
2023-05-21T18:29:52.456Z,42.57
2023-05-21T18:32:46.213Z,42.53
2023-05-21T18:35:39.362Z,42.59
2023-05-21T18:38:32.239Z,42.84
2023-05-21T18:41:24.815Z,43.00
2023-05-21T18:44:16.835Z,43.21
2023-05-21T18:46:48.707Z,43.21
2023-05-21T18:49:41.163Z,43.38
2023-05-21T18:52:33.254Z,43.44
2023-05-21T18:55:25.754Z,43.56
2023-05-21T18:58:17.799Z,43.67
2023-05-21T19:01:10.296Z,43.84
2023-05-21T19:03:51.759Z,43.92
2023-05-21T19:06:43.786Z,44.21
2023-05-21T19:09:35.864Z,44.45
2023-05-21T19:12:29.320Z,44.65
2023-05-21T19:15:21.718Z,45.07
2023-05-21T19:18:14.248Z,45.21
2023-05-21T19:21:06.551Z,45.55
2023-05-21T19:23:58.548Z,45.83
2023-05-21T19:26:33.453Z,46.15
2023-05-21T19:29:27.693Z,46.59
2023-05-21T19:32:23.567Z,46.62
2023-05-21T19:35:15.623Z,46.72
2023-05-21T19:38:08.452Z,46.98
2023-05-21T19:41:00.804Z,47.00
2023-05-21T19:43:53.114Z,47.06
2023-05-21T19:46:27.804Z,47.10
2023-05-21T19:49:20.021Z,47.25
2023-05-21T19:52:12.419Z,47.23
2023-05-21T19:55:06.266Z,47.32
2023-05-21T19:57:58.299Z,47.45
2023-05-21T20:00:33.261Z,47.51
2023-05-21T20:03:20.083Z,47.51
2023-05-21T20:06:12.894Z,47.49
2023-05-21T20:09:05.646Z,47.07
2023-05-21T20:11:57.607Z,47.08
2023-05-21T20:14:49.911Z,47.17
2023-05-21T20:17:44.066Z,47.25
2023-05-21T20:20:38.105Z,47.13
2023-05-21T20:23:30.279Z,46.83
2023-05-21T20:26:23.167Z,46.88
2023-05-21T20:29:15.250Z,46.78
2023-05-21T20:32:08.318Z,46.63
2023-05-21T20:35:03.278Z,46.55
2023-05-21T20:37:41.075Z,46.50
2023-05-21T20:40:33.065Z,46.55
2023-05-21T20:43:25.471Z,46.45
2023-05-21T20:46:18.330Z,46.53
2023-05-21T20:49:10.694Z,46.45
2023-05-21T20:52:02.809Z,46.56
2023-05-21T20:54:55.078Z,46.50
2023-05-21T20:57:47.219Z,46.58
2023-05-21T21:00:41.868Z,46.62
2023-05-21T21:03:34.991Z,46.70
2023-05-21T21:06:30.057Z,46.79
2023-05-21T21:09:22.276Z,46.86
2023-05-21T21:12:25.383Z,46.96
2023-05-21T21:15:19.053Z,47.04
2023-05-21T21:18:12.414Z,47.07
2023-05-21T21:21:04.820Z,47.17
2023-05-21T21:23:42.023Z,47.23
2023-05-21T21:26:17.088Z,47.18
2023-05-21T21:29:09.128Z,47.17
2023-05-21T21:32:01.158Z,47.10
2023-05-21T21:34:42.090Z,47.11
2023-05-21T21:37:34.165Z,47.09
2023-05-21T21:40:27.309Z,47.00
2023-05-21T21:43:19.294Z,47.07
2023-05-21T21:46:11.379Z,47.08
2023-05-21T21:48:59.503Z,47.02
2023-05-21T21:51:51.939Z,47.10
2023-05-21T21:54:43.912Z,47.07
2023-05-21T21:57:35.933Z,47.17
2023-05-21T22:00:28.511Z,47.12
2023-05-21T22:03:20.596Z,47.19
2023-05-21T22:06:12.672Z,47.13
2023-05-21T22:09:04.782Z,47.19
2023-05-21T22:11:57.518Z,47.33
2023-05-21T22:14:51.016Z,47.28
2023-05-21T22:17:43.076Z,47.25
2023-05-21T22:20:35.148Z,47.20
2023-05-21T22:23:27.181Z,47.33
2023-05-21T22:26:19.224Z,47.41
2023-05-21T22:29:11.366Z,47.50
2023-05-21T22:31:45.910Z,47.60
2023-05-21T22:34:38.028Z,47.55
2023-05-21T22:37:30.036Z,47.58
2023-05-21T22:40:22.115Z,47.71
2023-05-21T22:43:14.114Z,47.72
2023-05-21T22:46:06.266Z,47.80
2023-05-21T22:48:58.330Z,47.94
2023-05-21T22:51:52.584Z,47.94
2023-05-21T22:54:44.595Z,47.96
2023-05-21T22:57:36.649Z,47.92
2023-05-21T23:00:29.157Z,47.89
2023-05-21T23:03:21.224Z,47.98
2023-05-21T23:06:13.327Z,47.86
2023-05-21T23:09:05.937Z,47.93
2023-05-21T23:11:58.100Z,47.98
2023-05-21T23:14:50.361Z,47.82
2023-05-21T23:17:42.372Z,48.02
2023-05-21T23:20:34.476Z,48.07
2023-05-21T23:23:26.480Z,48.05
2023-05-21T23:26:07.431Z,48.02
2023-05-21T23:28:59.432Z,48.05
2023-05-21T23:31:51.814Z,48.09
2023-05-21T23:34:43.923Z,48.03
2023-05-21T23:37:36.117Z,48.17
2023-05-21T23:40:28.177Z,48.13
2023-05-21T23:43:20.242Z,48.28
2023-05-21T23:46:13.841Z,48.26
2023-05-21T23:49:05.957Z,48.35
2023-05-21T23:51:58.148Z,48.41
2023-05-21T23:54:50.203Z,48.39
2023-05-21T23:57:42.268Z,48.43
